Malaga, Washington
Current Conditions -  °F | °C
As of 5:55 AM on Saturday 25 Oct 2014 (Local Time) from KEAT Reporting Station
Overcast Overcast  
Wind Chill: 44°   Ceiling: 700
Heat Index: 47°   Visibility: 10mi
Dew Point: 44°   Wind: 6mph
Humidity: 90%   Direction: 280°W
Pressure: 29.75"   Gusts: NA
Location:  47.35°N, 120.2°W
Report Text: KEAT 251255Z AUTO 28005KT 10SM OVC007 08/07 A2975 RMK AO2 SLP078 T00830067
Loading
Personal Weather Stations






























Interactive Weather Map
Tropical Storm Tracking
New forecast layout! Learn more

10-Day Weather Forecast

Advertisements
Track Severe Weather on mobile